aviador You're here:

PAEN Decoded Metar

KENAI in AK, USA
Report Time2017-08-19 10:53:00
UTC Time2017-08-19 11:10:46
Flight Rules mvfr MVFR
Wind090° at 06 kt
W.Decomp.*RWY 01: 2.9 kt HW 5.2 kt RCW
W.Rank090° ranks 20
Current wind is below 090° avg. (6.5)
Visibility9999 m
Phenomena:N/A
Clouds:Scattered 011 Hf
Overcast 018 Hf
Ceiling1,800 ft
Temp09°C (ISA -6)
Dew Point09°C (100% RH)
AAT6.6°C
QNH1006 hPa
Density Alt-217 ft
Elevation89 ft
Report Wrong Elevation
Raw Report
PAEN 191053Z AUTO 09006KT 10SM SCT011 OVC018 09/09 A2972 RMK AO2
SLP066 T00940094 TSNO=

Extra information for PAEN:More info

Metar Taf Metar & Taf Last 4 Metars F.Rules Stats Wind Profile Meteogram Temp Stats Airport Information Weather charts Add Link Nearby VenuesMetar ALERT Operation Metar Decoded Social comments

AIRNAV info for PAEN